sensor_id;sensor_type;location;lat;lon;timestamp;temperature;humidity
12957;DHT22;6543;48.836;10.092;2022-09-03T00:02:23;15.40;99.90
12957;DHT22;6543;48.836;10.092;2022-09-03T00:04:57;15.40;99.90
12957;DHT22;6543;48.836;10.092;2022-09-03T00:07:30;15.40;99.90
12957;DHT22;6543;48.836;10.092;2022-09-03T00:10:04;15.40;99.90
12957;DHT22;6543;48.836;10.092;2022-09-03T00:12:36;15.40;99.90
12957;DHT22;6543;48.836;10.092;2022-09-03T00:15:07;15.40;99.90
12957;DHT22;6543;48.836;10.092;2022-09-03T00:17:37;15.50;99.90
12957;DHT22;6543;48.836;10.092;2022-09-03T00:20:10;15.40;99.90
12957;DHT22;6543;48.836;10.092;2022-09-03T00:22:41;15.30;99.90
12957;DHT22;6543;48.836;10.092;2022-09-03T00:25:12;15.40;99.90
12957;DHT22;6543;48.836;10.092;2022-09-03T00:27:43;15.30;99.90
12957;DHT22;6543;48.836;10.092;2022-09-03T00:30:13;15.20;99.90
12957;DHT22;6543;48.836;10.092;2022-09-03T00:32:43;15.20;99.90
12957;DHT22;6543;48.836;10.092;2022-09-03T00:35:16;15.20;99.90
12957;DHT22;6543;48.836;10.092;2022-09-03T00:37:47;15.10;99.90
12957;DHT22;6543;48.836;10.092;2022-09-03T00:40:27;15.10;99.90
12957;DHT22;6543;48.836;10.092;2022-09-03T00:43:04;15.10;99.90
12957;DHT22;6543;48.836;10.092;2022-09-03T00:45:42;15.10;99.90
12957;DHT22;6543;48.836;10.092;2022-09-03T00:48:20;15.00;99.90
12957;DHT22;6543;48.836;10.092;2022-09-03T00:50:59;14.90;99.90
12957;DHT22;6543;48.836;10.092;2022-09-03T00:53:35;14.90;99.90
12957;DHT22;6543;48.836;10.092;2022-09-03T00:56:12;14.90;99.90
12957;DHT22;6543;48.836;10.092;2022-09-03T00:58:57;14.90;99.90
12957;DHT22;6543;48.836;10.092;2022-09-03T01:01:31;14.90;99.90
12957;DHT22;6543;48.836;10.092;2022-09-03T01:04:11;16.70;99.90
12957;DHT22;6543;48.836;10.092;2022-09-03T01:06:52;14.80;99.90
12957;DHT22;6543;48.836;10.092;2022-09-03T01:09:33;14.80;99.90
12957;DHT22;6543;48.836;10.092;2022-09-03T01:12:09;14.70;99.90
12957;DHT22;6543;48.836;10.092;2022-09-03T01:14:48;14.80;99.90
12957;DHT22;6543;48.836;10.092;2022-09-03T01:17:28;14.80;99.90
12957;DHT22;6543;48.836;10.092;2022-09-03T01:25:53;14.70;99.90
12957;DHT22;6543;48.836;10.092;2022-09-03T01:28:41;14.60;99.90
12957;DHT22;6543;48.836;10.092;2022-09-03T01:31:18;14.60;99.90
12957;DHT22;6543;48.836;10.092;2022-09-03T01:33:56;14.60;99.90
12957;DHT22;6543;48.836;10.092;2022-09-03T01:36:33;14.60;99.90
12957;DHT22;6543;48.836;10.092;2022-09-03T01:39:05;14.60;99.90
12957;DHT22;6543;48.836;10.092;2022-09-03T01:41:41;14.60;99.90
12957;DHT22;6543;48.836;10.092;2022-09-03T01:44:41;14.70;99.90
12957;DHT22;6543;48.836;10.092;2022-09-03T01:47:16;14.60;99.90
12957;DHT22;6543;48.836;10.092;2022-09-03T01:49:49;14.60;99.90
12957;DHT22;6543;48.836;10.092;2022-09-03T01:52:28;14.50;99.90
12957;DHT22;6543;48.836;10.092;2022-09-03T01:55:12;14.50;99.90
12957;DHT22;6543;48.836;10.092;2022-09-03T01:57:48;14.50;99.90
12957;DHT22;6543;48.836;10.092;2022-09-03T02:00:18;14.50;99.90
12957;DHT22;6543;48.836;10.092;2022-09-03T02:02:47;14.50;99.90
12957;DHT22;6543;48.836;10.092;2022-09-03T02:05:18;14.60;99.90
12957;DHT22;6543;48.836;10.092;2022-09-03T02:07:49;14.60;99.90
12957;DHT22;6543;48.836;10.092;2022-09-03T02:10:19;14.60;99.90
12957;DHT22;6543;48.836;10.092;2022-09-03T02:12:50;14.60;99.90
12957;DHT22;6543;48.836;10.092;2022-09-03T02:15:21;14.60;99.90
12957;DHT22;6543;48.836;10.092;2022-09-03T02:17:51;14.60;99.90
12957;DHT22;6543;48.836;10.092;2022-09-03T02:20:22;14.70;99.90
12957;DHT22;6543;48.836;10.092;2022-09-03T02:22:49;14.70;99.90
12957;DHT22;6543;48.836;10.092;2022-09-03T02:25:20;14.70;99.90
12957;DHT22;6543;48.836;10.092;2022-09-03T02:27:48;14.70;99.90
12957;DHT22;6543;48.836;10.092;2022-09-03T02:30:16;14.70;99.90
12957;DHT22;6543;48.836;10.092;2022-09-03T02:32:45;14.70;99.90
12957;DHT22;6543;48.836;10.092;2022-09-03T02:35:12;14.70;99.90
12957;DHT22;6543;48.836;10.092;2022-09-03T02:37:39;14.80;99.90
12957;DHT22;6543;48.836;10.092;2022-09-03T02:40:06;14.80;99.90
12957;DHT22;6543;48.836;10.092;2022-09-03T02:42:35;14.80;99.90
12957;DHT22;6543;48.836;10.092;2022-09-03T02:45:09;14.70;99.90
12957;DHT22;6543;48.836;10.092;2022-09-03T02:47:42;14.70;99.90
12957;DHT22;6543;48.836;10.092;2022-09-03T02:50:11;14.70;99.90
12957;DHT22;6543;48.836;10.092;2022-09-03T02:52:38;14.80;99.90
12957;DHT22;6543;48.836;10.092;2022-09-03T02:55:06;14.80;99.90
12957;DHT22;6543;48.836;10.092;2022-09-03T02:57:32;14.70;99.90
12957;DHT22;6543;48.836;10.092;2022-09-03T02:59:59;14.70;99.90
12957;DHT22;6543;48.836;10.092;2022-09-03T03:02:26;14.70;99.90
12957;DHT22;6543;48.836;10.092;2022-09-03T03:04:53;14.70;99.90
12957;DHT22;6543;48.836;10.092;2022-09-03T03:07:21;14.70;99.90
12957;DHT22;6543;48.836;10.092;2022-09-03T03:09:48;14.80;99.90
12957;DHT22;6543;48.836;10.092;2022-09-03T03:12:15;14.70;99.90
12957;DHT22;6543;48.836;10.092;2022-09-03T03:14:43;14.70;99.90
12957;DHT22;6543;48.836;10.092;2022-09-03T03:17:10;14.70;99.90
12957;DHT22;6543;48.836;10.092;2022-09-03T03:19:37;14.70;99.90
12957;DHT22;6543;48.836;10.092;2022-09-03T03:22:04;14.80;99.90
12957;DHT22;6543;48.836;10.092;2022-09-03T03:24:32;14.80;99.90
12957;DHT22;6543;48.836;10.092;2022-09-03T03:26:59;14.80;99.90
12957;DHT22;6543;48.836;10.092;2022-09-03T03:29:26;14.80;99.90
12957;DHT22;6543;48.836;10.092;2022-09-03T03:31:53;14.70;99.90
12957;DHT22;6543;48.836;10.092;2022-09-03T03:34:20;14.70;99.90
12957;DHT22;6543;48.836;10.092;2022-09-03T03:36:47;14.70;99.90
12957;DHT22;6543;48.836;10.092;2022-09-03T03:39:14;14.70;99.90
12957;DHT22;6543;48.836;10.092;2022-09-03T03:41:42;14.70;99.90
12957;DHT22;6543;48.836;10.092;2022-09-03T03:44:09;14.70;99.90
12957;DHT22;6543;48.836;10.092;2022-09-03T03:46:38;14.70;99.90
12957;DHT22;6543;48.836;10.092;2022-09-03T03:49:05;14.70;99.90
12957;DHT22;6543;48.836;10.092;2022-09-03T03:51:33;14.70;99.90
12957;DHT22;6543;48.836;10.092;2022-09-03T03:54:00;14.70;99.90
12957;DHT22;6543;48.836;10.092;2022-09-03T03:56:28;14.70;99.90
12957;DHT22;6543;48.836;10.092;2022-09-03T03:58:58;14.70;99.90
12957;DHT22;6543;48.836;10.092;2022-09-03T04:01:26;14.70;99.90
12957;DHT22;6543;48.836;10.092;2022-09-03T04:03:54;14.70;99.90
12957;DHT22;6543;48.836;10.092;2022-09-03T04:06:21;14.80;99.90
12957;DHT22;6543;48.836;10.092;2022-09-03T04:08:48;14.80;99.90
12957;DHT22;6543;48.836;10.092;2022-09-03T04:11:17;14.80;99.90
12957;DHT22;6543;48.836;10.092;2022-09-03T04:13:45;14.80;99.90
12957;DHT22;6543;48.836;10.092;2022-09-03T04:16:15;14.80;99.90
12957;DHT22;6543;48.836;10.092;2022-09-03T04:18:43;14.80;99.90
12957;DHT22;6543;48.836;10.092;2022-09-03T04:21:11;14.90;99.90
12957;DHT22;6543;48.836;10.092;2022-09-03T04:23:41;14.80;99.90
12957;DHT22;6543;48.836;10.092;2022-09-03T04:26:09;14.90;99.90
12957;DHT22;6543;48.836;10.092;2022-09-03T04:28:37;14.80;99.90
12957;DHT22;6543;48.836;10.092;2022-09-03T04:31:05;14.80;99.90
12957;DHT22;6543;48.836;10.092;2022-09-03T04:33:34;14.80;99.90
12957;DHT22;6543;48.836;10.092;2022-09-03T04:36:07;14.80;99.90
12957;DHT22;6543;48.836;10.092;2022-09-03T04:38:35;14.80;99.90
12957;DHT22;6543;48.836;10.092;2022-09-03T04:41:03;14.70;99.90
12957;DHT22;6543;48.836;10.092;2022-09-03T04:43:30;14.70;99.90
12957;DHT22;6543;48.836;10.092;2022-09-03T04:45:57;14.70;99.90
12957;DHT22;6543;48.836;10.092;2022-09-03T04:48:25;14.70;99.90
12957;DHT22;6543;48.836;10.092;2022-09-03T04:50:54;14.70;99.90
12957;DHT22;6543;48.836;10.092;2022-09-03T04:53:27;14.70;99.90
12957;DHT22;6543;48.836;10.092;2022-09-03T04:55:54;14.70;99.90
12957;DHT22;6543;48.836;10.092;2022-09-03T04:58:21;14.60;99.90
12957;DHT22;6543;48.836;10.092;2022-09-03T05:00:48;14.60;99.90
12957;DHT22;6543;48.836;10.092;2022-09-03T05:03:16;14.60;99.90
12957;DHT22;6543;48.836;10.092;2022-09-03T05:05:52;14.60;99.90
12957;DHT22;6543;48.836;10.092;2022-09-03T05:08:19;14.60;99.90
12957;DHT22;6543;48.836;10.092;2022-09-03T05:10:46;14.60;99.90
12957;DHT22;6543;48.836;10.092;2022-09-03T05:13:13;14.60;99.90
12957;DHT22;6543;48.836;10.092;2022-09-03T05:15:40;14.70;99.90
12957;DHT22;6543;48.836;10.092;2022-09-03T05:18:10;14.60;99.90
12957;DHT22;6543;48.836;10.092;2022-09-03T05:20:38;14.60;99.90
12957;DHT22;6543;48.836;10.092;2022-09-03T05:23:06;14.60;99.90
12957;DHT22;6543;48.836;10.092;2022-09-03T05:25:33;14.60;99.90
12957;DHT22;6543;48.836;10.092;2022-09-03T05:28:03;14.70;99.90
12957;DHT22;6543;48.836;10.092;2022-09-03T05:30:30;14.80;99.90
12957;DHT22;6543;48.836;10.092;2022-09-03T05:32:56;14.90;99.90
12957;DHT22;6543;48.836;10.092;2022-09-03T05:35:23;14.90;99.90
12957;DHT22;6543;48.836;10.092;2022-09-03T05:37:53;14.90;99.90
12957;DHT22;6543;48.836;10.092;2022-09-03T05:40:21;15.00;99.90
12957;DHT22;6543;48.836;10.092;2022-09-03T05:42:54;15.10;99.90
12957;DHT22;6543;48.836;10.092;2022-09-03T05:45:23;15.00;99.90
12957;DHT22;6543;48.836;10.092;2022-09-03T05:47:49;15.00;99.90
12957;DHT22;6543;48.836;10.092;2022-09-03T05:50:16;15.00;99.90
12957;DHT22;6543;48.836;10.092;2022-09-03T05:52:43;15.10;99.90
12957;DHT22;6543;48.836;10.092;2022-09-03T05:55:10;15.10;99.90
12957;DHT22;6543;48.836;10.092;2022-09-03T05:57:38;15.10;99.90
12957;DHT22;6543;48.836;10.092;2022-09-03T06:00:07;15.10;99.90
12957;DHT22;6543;48.836;10.092;2022-09-03T06:02:34;15.10;99.90
12957;DHT22;6543;48.836;10.092;2022-09-03T06:05:01;15.20;99.90
12957;DHT22;6543;48.836;10.092;2022-09-03T06:07:28;15.20;99.90
12957;DHT22;6543;48.836;10.092;2022-09-03T06:09:55;15.20;99.90
12957;DHT22;6543;48.836;10.092;2022-09-03T06:12:22;15.20;99.90
12957;DHT22;6543;48.836;10.092;2022-09-03T06:14:50;15.20;99.90
12957;DHT22;6543;48.836;10.092;2022-09-03T06:17:17;15.30;99.90
12957;DHT22;6543;48.836;10.092;2022-09-03T06:19:44;15.30;99.90
12957;DHT22;6543;48.836;10.092;2022-09-03T06:22:11;15.40;99.90
12957;DHT22;6543;48.836;10.092;2022-09-03T06:24:38;15.70;99.90
12957;DHT22;6543;48.836;10.092;2022-09-03T06:27:04;15.30;99.90
12957;DHT22;6543;48.836;10.092;2022-09-03T06:29:32;15.30;99.90
12957;DHT22;6543;48.836;10.092;2022-09-03T06:32:01;15.40;99.90
12957;DHT22;6543;48.836;10.092;2022-09-03T06:34:29;15.50;99.90
12957;DHT22;6543;48.836;10.092;2022-09-03T06:36:56;15.70;99.90
12957;DHT22;6543;48.836;10.092;2022-09-03T06:39:24;15.70;99.90
12957;DHT22;6543;48.836;10.092;2022-09-03T06:41:51;15.70;99.90
12957;DHT22;6543;48.836;10.092;2022-09-03T06:44:19;15.90;99.90
12957;DHT22;6543;48.836;10.092;2022-09-03T06:46:46;15.80;99.90
12957;DHT22;6543;48.836;10.092;2022-09-03T06:49:14;15.80;99.90
12957;DHT22;6543;48.836;10.092;2022-09-03T06:51:42;15.80;99.90
12957;DHT22;6543;48.836;10.092;2022-09-03T06:54:10;15.90;99.90
12957;DHT22;6543;48.836;10.092;2022-09-03T06:56:39;15.90;99.90
12957;DHT22;6543;48.836;10.092;2022-09-03T06:59:07;15.80;99.90
12957;DHT22;6543;48.836;10.092;2022-09-03T07:01:35;15.80;99.90
12957;DHT22;6543;48.836;10.092;2022-09-03T07:04:04;15.80;99.90
12957;DHT22;6543;48.836;10.092;2022-09-03T07:06:34;15.80;99.90
12957;DHT22;6543;48.836;10.092;2022-09-03T07:09:03;15.60;99.90
12957;DHT22;6543;48.836;10.092;2022-09-03T07:11:30;15.30;99.90
12957;DHT22;6543;48.836;10.092;2022-09-03T07:13:58;14.90;99.90
12957;DHT22;6543;48.836;10.092;2022-09-03T07:16:27;14.50;99.90
12957;DHT22;6543;48.836;10.092;2022-09-03T07:18:54;14.30;99.90
12957;DHT22;6543;48.836;10.092;2022-09-03T07:21:23;14.10;99.90
12957;DHT22;6543;48.836;10.092;2022-09-03T07:23:52;14.00;99.90
12957;DHT22;6543;48.836;10.092;2022-09-03T07:26:21;13.90;99.90
12957;DHT22;6543;48.836;10.092;2022-09-03T07:28:48;13.90;99.90
12957;DHT22;6543;48.836;10.092;2022-09-03T07:31:17;13.80;99.90
12957;DHT22;6543;48.836;10.092;2022-09-03T07:33:44;13.90;99.90
12957;DHT22;6543;48.836;10.092;2022-09-03T07:36:13;14.00;99.90
12957;DHT22;6543;48.836;10.092;2022-09-03T07:38:41;14.20;99.90
12957;DHT22;6543;48.836;10.092;2022-09-03T07:41:11;14.10;99.90
12957;DHT22;6543;48.836;10.092;2022-09-03T07:43:40;14.30;99.90
12957;DHT22;6543;48.836;10.092;2022-09-03T07:46:08;14.40;99.90
12957;DHT22;6543;48.836;10.092;2022-09-03T07:48:38;14.60;99.90
12957;DHT22;6543;48.836;10.092;2022-09-03T07:51:05;14.90;99.90
12957;DHT22;6543;48.836;10.092;2022-09-03T07:53:32;15.20;99.90
12957;DHT22;6543;48.836;10.092;2022-09-03T07:56:04;15.40;99.90
12957;DHT22;6543;48.836;10.092;2022-09-03T07:58:34;15.40;99.90
12957;DHT22;6543;48.836;10.092;2022-09-03T08:01:04;15.60;99.90
12957;DHT22;6543;48.836;10.092;2022-09-03T08:03:32;15.90;99.90
12957;DHT22;6543;48.836;10.092;2022-09-03T08:06:00;16.20;99.90
12957;DHT22;6543;48.836;10.092;2022-09-03T08:08:29;16.20;99.90
12957;DHT22;6543;48.836;10.092;2022-09-03T08:11:03;16.20;99.90
12957;DHT22;6543;48.836;10.092;2022-09-03T08:13:32;16.30;99.90
12957;DHT22;6543;48.836;10.092;2022-09-03T08:15:59;16.60;99.90
12957;DHT22;6543;48.836;10.092;2022-09-03T08:18:26;16.90;99.90
12957;DHT22;6543;48.836;10.092;2022-09-03T08:21:00;17.10;99.90
12957;DHT22;6543;48.836;10.092;2022-09-03T08:23:26;17.20;99.90
12957;DHT22;6543;48.836;10.092;2022-09-03T08:25:57;17.50;99.90
12957;DHT22;6543;48.836;10.092;2022-09-03T08:28:24;17.70;99.90
12957;DHT22;6543;48.836;10.092;2022-09-03T08:30:53;18.00;99.90
12957;DHT22;6543;48.836;10.092;2022-09-03T08:33:20;18.10;99.90
12957;DHT22;6543;48.836;10.092;2022-09-03T08:36:02;18.40;99.90
12957;DHT22;6543;48.836;10.092;2022-09-03T08:38:31;18.30;99.90
12957;DHT22;6543;48.836;10.092;2022-09-03T08:41:03;18.40;99.90
12957;DHT22;6543;48.836;10.092;2022-09-03T08:43:30;18.60;99.90
12957;DHT22;6543;48.836;10.092;2022-09-03T08:46:02;18.60;99.90
12957;DHT22;6543;48.836;10.092;2022-09-03T08:48:30;18.70;99.90
12957;DHT22;6543;48.836;10.092;2022-09-03T08:50:59;18.80;99.90
12957;DHT22;6543;48.836;10.092;2022-09-03T08:53:36;18.90;99.90
12957;DHT22;6543;48.836;10.092;2022-09-03T08:56:08;17.50;99.90
12957;DHT22;6543;48.836;10.092;2022-09-03T08:58:36;19.30;99.90
12957;DHT22;6543;48.836;10.092;2022-09-03T09:01:11;19.60;99.90
12957;DHT22;6543;48.836;10.092;2022-09-03T09:03:47;19.80;99.90
12957;DHT22;6543;48.836;10.092;2022-09-03T09:06:22;19.90;99.90
12957;DHT22;6543;48.836;10.092;2022-09-03T09:08:58;20.10;99.90
12957;DHT22;6543;48.836;10.092;2022-09-03T09:11:37;20.20;99.90
12957;DHT22;6543;48.836;10.092;2022-09-03T09:14:10;20.50;99.90
12957;DHT22;6543;48.836;10.092;2022-09-03T09:16:48;20.70;99.90
12957;DHT22;6543;48.836;10.092;2022-09-03T09:19:30;20.90;99.90
12957;DHT22;6543;48.836;10.092;2022-09-03T09:22:00;21.10;99.90
12957;DHT22;6543;48.836;10.092;2022-09-03T09:24:36;21.20;99.90
12957;DHT22;6543;48.836;10.092;2022-09-03T09:27:04;21.20;99.90
12957;DHT22;6543;48.836;10.092;2022-09-03T09:29:35;21.30;99.90
12957;DHT22;6543;48.836;10.092;2022-09-03T09:32:05;21.20;99.90
12957;DHT22;6543;48.836;10.092;2022-09-03T09:34:34;21.50;99.90
12957;DHT22;6543;48.836;10.092;2022-09-03T09:37:04;21.60;99.90
12957;DHT22;6543;48.836;10.092;2022-09-03T09:39:32;21.80;99.90
12957;DHT22;6543;48.836;10.092;2022-09-03T09:42:00;21.90;99.90
12957;DHT22;6543;48.836;10.092;2022-09-03T09:44:32;21.80;99.90
12957;DHT22;6543;48.836;10.092;2022-09-03T09:47:06;22.00;99.90
12957;DHT22;6543;48.836;10.092;2022-09-03T09:49:36;22.10;99.90
12957;DHT22;6543;48.836;10.092;2022-09-03T09:52:08;22.40;99.90
12957;DHT22;6543;48.836;10.092;2022-09-03T09:54:36;22.40;99.90
12957;DHT22;6543;48.836;10.092;2022-09-03T09:57:05;22.30;99.90
12957;DHT22;6543;48.836;10.092;2022-09-03T09:59:33;22.00;99.90
12957;DHT22;6543;48.836;10.092;2022-09-03T10:02:16;22.20;99.90
12957;DHT22;6543;48.836;10.092;2022-09-03T10:04:45;22.30;99.90
12957;DHT22;6543;48.836;10.092;2022-09-03T10:07:23;22.60;99.90
12957;DHT22;6543;48.836;10.092;2022-09-03T10:10:01;22.50;99.90
12957;DHT22;6543;48.836;10.092;2022-09-03T10:12:31;22.70;99.90
12957;DHT22;6543;48.836;10.092;2022-09-03T10:15:10;22.70;99.90
12957;DHT22;6543;48.836;10.092;2022-09-03T10:17:51;22.50;99.90
12957;DHT22;6543;48.836;10.092;2022-09-03T10:20:23;22.50;99.90
12957;DHT22;6543;48.836;10.092;2022-09-03T10:23:00;22.50;99.90
12957;DHT22;6543;48.836;10.092;2022-09-03T10:25:34;22.50;99.90
12957;DHT22;6543;48.836;10.092;2022-09-03T10:28:04;22.40;99.90
12957;DHT22;6543;48.836;10.092;2022-09-03T10:30:40;22.60;99.90
12957;DHT22;6543;48.836;10.092;2022-09-03T10:33:18;22.60;99.90
12957;DHT22;6543;48.836;10.092;2022-09-03T10:35:51;22.80;99.90
12957;DHT22;6543;48.836;10.092;2022-09-03T10:38:27;22.80;99.90
12957;DHT22;6543;48.836;10.092;2022-09-03T10:41:06;23.20;99.90
12957;DHT22;6543;48.836;10.092;2022-09-03T10:43:50;23.20;99.90
12957;DHT22;6543;48.836;10.092;2022-09-03T10:46:26;23.00;99.90
12957;DHT22;6543;48.836;10.092;2022-09-03T10:49:11;23.00;99.90
12957;DHT22;6543;48.836;10.092;2022-09-03T10:51:42;23.00;99.90
12957;DHT22;6543;48.836;10.092;2022-09-03T10:54:36;23.20;99.90
12957;DHT22;6543;48.836;10.092;2022-09-03T10:57:17;23.00;99.90
12957;DHT22;6543;48.836;10.092;2022-09-03T10:59:57;23.40;99.90
12957;DHT22;6543;48.836;10.092;2022-09-03T11:02:42;22.70;99.90
12957;DHT22;6543;48.836;10.092;2022-09-03T11:05:17;22.90;99.90
12957;DHT22;6543;48.836;10.092;2022-09-03T11:07:50;22.80;99.90
12957;DHT22;6543;48.836;10.092;2022-09-03T11:10:21;22.70;99.90
12957;DHT22;6543;48.836;10.092;2022-09-03T11:12:54;22.60;99.90
12957;DHT22;6543;48.836;10.092;2022-09-03T11:15:25;22.70;99.90
12957;DHT22;6543;48.836;10.092;2022-09-03T11:18:03;23.10;99.90
12957;DHT22;6543;48.836;10.092;2022-09-03T11:20:34;23.00;99.90
12957;DHT22;6543;48.836;10.092;2022-09-03T11:23:03;23.50;99.90
12957;DHT22;6543;48.836;10.092;2022-09-03T11:25:34;23.70;99.90
12957;DHT22;6543;48.836;10.092;2022-09-03T11:28:15;23.70;99.90
12957;DHT22;6543;48.836;10.092;2022-09-03T11:31:05;23.30;99.90
12957;DHT22;6543;48.836;10.092;2022-09-03T11:33:41;23.20;99.90
12957;DHT22;6543;48.836;10.092;2022-09-03T11:36:12;23.20;99.90
12957;DHT22;6543;48.836;10.092;2022-09-03T11:38:39;23.10;99.90
12957;DHT22;6543;48.836;10.092;2022-09-03T11:41:12;22.90;99.90
12957;DHT22;6543;48.836;10.092;2022-09-03T11:43:40;23.30;99.90
12957;DHT22;6543;48.836;10.092;2022-09-03T11:46:12;23.30;99.90
12957;DHT22;6543;48.836;10.092;2022-09-03T11:48:41;23.40;99.90
12957;DHT22;6543;48.836;10.092;2022-09-03T11:51:29;23.50;99.90
12957;DHT22;6543;48.836;10.092;2022-09-03T11:53:58;24.00;99.90
12957;DHT22;6543;48.836;10.092;2022-09-03T11:56:26;23.60;99.90
12957;DHT22;6543;48.836;10.092;2022-09-03T11:59:03;23.80;99.90
12957;DHT22;6543;48.836;10.092;2022-09-03T12:01:32;24.00;99.90
12957;DHT22;6543;48.836;10.092;2022-09-03T12:04:01;24.10;99.90
12957;DHT22;6543;48.836;10.092;2022-09-03T12:06:56;24.10;99.90
12957;DHT22;6543;48.836;10.092;2022-09-03T12:10:01;24.00;99.90
12957;DHT22;6543;48.836;10.092;2022-09-03T12:12:42;24.40;99.90
12957;DHT22;6543;48.836;10.092;2022-09-03T12:15:17;24.40;99.90
12957;DHT22;6543;48.836;10.092;2022-09-03T12:17:51;24.80;99.90
12957;DHT22;6543;48.836;10.092;2022-09-03T12:20:33;24.70;99.90
12957;DHT22;6543;48.836;10.092;2022-09-03T12:23:01;24.60;99.90
12957;DHT22;6543;48.836;10.092;2022-09-03T12:25:28;24.70;99.90
12957;DHT22;6543;48.836;10.092;2022-09-03T12:27:56;24.60;99.90
12957;DHT22;6543;48.836;10.092;2022-09-03T12:30:24;24.40;99.90
12957;DHT22;6543;48.836;10.092;2022-09-03T12:33:03;24.60;99.90
12957;DHT22;6543;48.836;10.092;2022-09-03T12:35:30;24.70;99.90
12957;DHT22;6543;48.836;10.092;2022-09-03T12:37:57;24.10;99.90
12957;DHT22;6543;48.836;10.092;2022-09-03T12:40:27;23.90;99.90
12957;DHT22;6543;48.836;10.092;2022-09-03T12:42:55;23.80;99.90
12957;DHT22;6543;48.836;10.092;2022-09-03T12:45:42;23.90;99.90
12957;DHT22;6543;48.836;10.092;2022-09-03T12:48:12;23.90;99.90
12957;DHT22;6543;48.836;10.092;2022-09-03T12:50:40;23.60;99.90
12957;DHT22;6543;48.836;10.092;2022-09-03T12:53:08;23.40;99.90
12957;DHT22;6543;48.836;10.092;2022-09-03T12:55:41;23.30;99.90
12957;DHT22;6543;48.836;10.092;2022-09-03T12:58:12;23.20;99.90
12957;DHT22;6543;48.836;10.092;2022-09-03T13:00:43;23.00;99.90
12957;DHT22;6543;48.836;10.092;2022-09-03T13:03:16;22.90;99.90
12957;DHT22;6543;48.836;10.092;2022-09-03T13:05:47;22.70;99.90
12957;DHT22;6543;48.836;10.092;2022-09-03T13:08:19;22.50;99.90
12957;DHT22;6543;48.836;10.092;2022-09-03T13:10:51;22.40;99.90
12957;DHT22;6543;48.836;10.092;2022-09-03T13:13:22;22.00;99.90
12957;DHT22;6543;48.836;10.092;2022-09-03T13:16:20;20.00;99.90
12957;DHT22;6543;48.836;10.092;2022-09-03T13:18:55;18.20;99.90
12957;DHT22;6543;48.836;10.092;2022-09-03T13:21:31;16.90;99.90
12957;DHT22;6543;48.836;10.092;2022-09-03T13:24:14;16.20;99.90
12957;DHT22;6543;48.836;10.092;2022-09-03T13:26:50;15.90;99.90
12957;DHT22;6543;48.836;10.092;2022-09-03T13:29:36;15.60;99.90
12957;DHT22;6543;48.836;10.092;2022-09-03T13:32:14;15.40;99.90
12957;DHT22;6543;48.836;10.092;2022-09-03T13:34:48;15.40;99.90
12957;DHT22;6543;48.836;10.092;2022-09-03T13:37:24;15.40;99.90
12957;DHT22;6543;48.836;10.092;2022-09-03T13:39:54;15.40;99.90
12957;DHT22;6543;48.836;10.092;2022-09-03T13:42:30;16.80;99.90
12957;DHT22;6543;48.836;10.092;2022-09-03T13:45:04;15.30;99.90
12957;DHT22;6543;48.836;10.092;2022-09-03T13:47:40;15.20;99.90
12957;DHT22;6543;48.836;10.092;2022-09-03T13:50:38;15.10;99.90
12957;DHT22;6543;48.836;10.092;2022-09-03T13:53:08;15.20;99.90
12957;DHT22;6543;48.836;10.092;2022-09-03T13:55:44;15.20;99.90
12957;DHT22;6543;48.836;10.092;2022-09-03T13:58:23;15.10;99.90
12957;DHT22;6543;48.836;10.092;2022-09-03T14:01:01;15.00;99.90
12957;DHT22;6543;48.836;10.092;2022-09-03T14:03:32;15.00;99.90
12957;DHT22;6543;48.836;10.092;2022-09-03T14:06:06;15.20;99.90
12957;DHT22;6543;48.836;10.092;2022-09-03T14:08:42;15.20;99.90
12957;DHT22;6543;48.836;10.092;2022-09-03T14:11:22;15.30;99.90
12957;DHT22;6543;48.836;10.092;2022-09-03T14:14:02;15.30;99.90
12957;DHT22;6543;48.836;10.092;2022-09-03T14:16:38;15.30;99.90
12957;DHT22;6543;48.836;10.092;2022-09-03T14:19:11;15.20;99.90
12957;DHT22;6543;48.836;10.092;2022-09-03T14:21:45;15.20;99.90
12957;DHT22;6543;48.836;10.092;2022-09-03T14:24:18;15.20;99.90
12957;DHT22;6543;48.836;10.092;2022-09-03T14:26:51;15.30;99.90
12957;DHT22;6543;48.836;10.092;2022-09-03T14:29:23;15.30;99.90
12957;DHT22;6543;48.836;10.092;2022-09-03T14:34:53;15.40;99.90
12957;DHT22;6543;48.836;10.092;2022-09-03T14:37:38;15.40;99.90
12957;DHT22;6543;48.836;10.092;2022-09-03T14:40:13;15.50;99.90
12957;DHT22;6543;48.836;10.092;2022-09-03T14:43:01;15.50;99.90
12957;DHT22;6543;48.836;10.092;2022-09-03T14:45:47;15.60;99.90
12957;DHT22;6543;48.836;10.092;2022-09-03T14:48:30;15.70;99.90
12957;DHT22;6543;48.836;10.092;2022-09-03T14:51:12;15.70;99.90
12957;DHT22;6543;48.836;10.092;2022-09-03T14:57:04;15.70;99.90
12957;DHT22;6543;48.836;10.092;2022-09-03T14:59:43;15.70;99.90
12957;DHT22;6543;48.836;10.092;2022-09-03T15:02:38;15.80;99.90
12957;DHT22;6543;48.836;10.092;2022-09-03T15:05:09;15.90;99.90
12957;DHT22;6543;48.836;10.092;2022-09-03T15:07:42;16.10;99.90
12957;DHT22;6543;48.836;10.092;2022-09-03T15:10:16;16.20;99.90
12957;DHT22;6543;48.836;10.092;2022-09-03T15:12:48;16.30;99.90
12957;DHT22;6543;48.836;10.092;2022-09-03T15:15:19;16.30;99.90
12957;DHT22;6543;48.836;10.092;2022-09-03T15:17:54;16.30;99.90
12957;DHT22;6543;48.836;10.092;2022-09-03T15:20:32;16.50;99.90
12957;DHT22;6543;48.836;10.092;2022-09-03T15:23:23;16.50;99.90
12957;DHT22;6543;48.836;10.092;2022-09-03T15:26:15;16.70;99.90
12957;DHT22;6543;48.836;10.092;2022-09-03T15:28:59;16.80;99.90
12957;DHT22;6543;48.836;10.092;2022-09-03T15:31:41;17.10;99.90
12957;DHT22;6543;48.836;10.092;2022-09-03T15:34:21;17.20;99.90
12957;DHT22;6543;48.836;10.092;2022-09-03T15:36:54;17.40;99.90
12957;DHT22;6543;48.836;10.092;2022-09-03T15:39:25;17.50;99.90
12957;DHT22;6543;48.836;10.092;2022-09-03T15:41:56;17.60;99.90
12957;DHT22;6543;48.836;10.092;2022-09-03T15:44:25;17.60;99.90
12957;DHT22;6543;48.836;10.092;2022-09-03T15:46:56;17.40;99.90
12957;DHT22;6543;48.836;10.092;2022-09-03T15:49:35;17.20;99.90
12957;DHT22;6543;48.836;10.092;2022-09-03T15:52:14;17.20;99.90
12957;DHT22;6543;48.836;10.092;2022-09-03T15:54:49;17.30;99.90
12957;DHT22;6543;48.836;10.092;2022-09-03T15:57:21;17.30;99.90
12957;DHT22;6543;48.836;10.092;2022-09-03T15:59:57;17.30;99.90
12957;DHT22;6543;48.836;10.092;2022-09-03T16:02:30;17.40;99.90
12957;DHT22;6543;48.836;10.092;2022-09-03T16:05:07;17.20;99.90
12957;DHT22;6543;48.836;10.092;2022-09-03T16:07:51;17.00;99.90
12957;DHT22;6543;48.836;10.092;2022-09-03T16:10:21;17.00;99.90
12957;DHT22;6543;48.836;10.092;2022-09-03T16:13:04;17.00;99.90
12957;DHT22;6543;48.836;10.092;2022-09-03T16:15:35;17.10;99.90